A- A+ FrançaisEnglishEspañol中国

最近的 LGIR HeraklionLSMD DubendorfLTFM IstanbulFZQF FungurumeLFBT Tarbes-Lourdes-PyrénéesEPKP Pobiednik Wielki

飞行员的航空天气,使用METAR(气象机场报告)进行的飞行准备和TAF(终端机场预报:针对以下情况的短期天气预报)航空)。 以及其他资源,例如VAC(目视进近图)和NOTAM(通知飞行员)以进行预试飞行.

METAR, TAF, VAC, NOTAM Teslin机场 (加拿大) / OACI CYZW/ IATA YZW

它位于附近 Teslin (加拿大) 可提供5天天气预报 Teslin 在 1.3 km, Atlin 在 85 km, Tagish 在 86 km, Carcross 在 108 km, Engineer 在 114 km, Ross River 在 203 km, Juneau City and Borough 在 215 km, Juneau 在 229 km,

机场的高度为 Teslin机场的

705 m = 2313 ft

附近的机场 Teslin机场的

跑道 Teslin机场的

METAR Teslin机场的 - CYZW

CYZW 211700Z 23004KT 30SM SKC 08/M01 A3001 RMK SLP185

Teslin机场METAR解码 (加拿大)

CYZW机场发行的METAR日期2020年05月21日至17:00 GMT, 警告:此METAR已过期, 已于 8 天 6 小时 22 分钟.

可见度为48.3 km = 30 sm.

温度为8°C = 46 °F 露点为-1°C = 30 °F 。 这相当于53%的相对湿度。.

QNH是1016 hPa = 30 inHg

的风4 kt = 7 km/h, 风向为230°.

天空晴朗

备注 SLP185

TAF Teslin机场的 - CYZW

CYZW 141738Z 1418/1424 26008KT P6SM FEW040 RMK NXT FCST WILL BE ISSUED AT 151745Z

Teslin机场TAF解码 (加拿大)

CYZW机场发行的TAF日期2020年04月14日至17:38 GMT 警告:此TAF已过期, 已于 45 天 5 小时 44 分钟.

du mardi 14 avril 2020 à 18:00 heure TU au mardi 14 avril 2020 à 00:00 heure TU

的风8 kt = 15 km/h, 风向为260°.

处少云 4000 ft=1220云.

Teslin机场的NOTAM

提供的NOTAM不能保证其时事性。 在将其用于飞行准备或在飞行期间使用之前,飞行员是唯一负责验证其有效性的人员。

没有通知

数据源